Terminal Aerodrome Forecast
Issued by NWS

Home | Current Version | Previous Version | Text Only | Print | Product List | Glossary On
Versions: 1 2 3 4 5 6 7 8 9 10 11 12 13 14
000
FTUS44 KHGX 202325
TAFUTS
TAF
KUTS 202325Z 2100/2124 16006KT P6SM FEW080
     FM210600 VRB03KT P6SM FEW015 SCT070
     FM210900 19003KT 6SM BR SCT007
     FM211500 19010KT P6SM SCT015
     FM211800 18010KT P6SM SCT035=

USA.gov is the U.S. government's official web portal to all federal, state and local government web resources and services.